Brian A Napack — WDB8704 — position and weather

sailwx.info

Track history (hours):
 
Tides and Currents Weather Stations Pressure Air Temp Water Temp Dewpoint Dewpoint Depression Visibility Wind Speed Wind Dir Waves Ship Positions

Brian A Napack

Owner: Ingram Barge Company LLC, Nashville, TN. More information available from US FCC via Universal Licensing System and Coast Guard Vessel Documentation Center.

Last reported at 2018-May-11 19:43 UTC. Time now 2018-Jun-23 19:47 UTC.
Position N 39°12' W 090°36'.
Warning: this ship's position is 43 days out of date.

Length 46 m.

Type: Towing. MMSI: 366963060.

Date/timePositionNaut miles runAvg speedWind from/ knotsBaromVisibWave heightAir tempDewpointWater temp
2018-May-11 19:43N 39°12' W 090°36'0 0.1
2018-May-11 18:12N 39°12' W 090°35'0 1.3
2018-May-11 17:49N 39°12' W 090°36'1 3.6
2018-May-11 17:29N 39°11' W 090°36'2 4.1
2018-May-11 17:00N 39°09' W 090°37'2 4.1
2018-May-11 16:30N 39°07' W 090°36'2 4.3
2018-May-11 16:00N 39°05' W 090°35'2 3.1
2018-May-11 15:29N 39°03' W 090°35'2 3.5
2018-May-11 15:00N 39°02' W 090°34'2 3.8
2018-May-11 14:30N 38°60' W 090°34'2 4.1
2018-May-11 14:01N 38°58' W 090°33'2 3.6
2018-May-11 13:30N 38°57' W 090°31'2 4.3
2018-May-11 13:01N 38°58' W 090°28'2 3.9
2018-May-11 12:30N 38°58' W 090°25'2 3.7
2018-May-11 12:01N 38°58' W 090°23'1 2.1
2018-May-11 11:30N 38°57' W 090°22'2 4.5
2018-May-11 11:01N 38°56' W 090°20'2 4.7
2018-May-11 10:30N 38°55' W 090°17'2 4.4
2018-May-11 10:00N 38°55' W 090°14'0 0.9
2018-May-11 09:30N 38°55' W 090°13'0 0.0
2018-May-11 09:00N 38°55' W 090°13'0 0.0
2018-May-11 08:29N 38°55' W 090°13'0 0.0
2018-May-11 08:00N 38°55' W 090°13'0 0.0
2018-May-11 07:30N 38°55' W 090°13'0 0.2
2018-May-11 07:00N 38°55' W 090°13'0 0.2
2018-May-11 06:31N 38°55' W 090°13'0 0.1
2018-May-11 06:00N 38°55' W 090°13'0 0.1
2018-May-11 05:30N 38°55' W 090°14'0 0.2
2018-May-11 05:00N 38°55' W 090°13'0 0.0
2018-May-11 04:31N 38°55' W 090°13'0 0.0
2018-May-11 04:00N 38°55' W 090°13'0 0.0
2018-May-11 03:30N 38°55' W 090°13'2 3.8
2018-May-11 03:00N 38°55' W 090°16'3 6.4
2018-May-11 02:30N 38°56' W 090°20'3 6.6
2018-May-11 02:00N 38°58' W 090°23'3 6.7
2018-May-11 01:30N 38°58' W 090°28'2 4.5
2018-May-11 01:00N 38°57' W 090°30'2 3.7
2018-May-11 00:30N 38°58' W 090°33'2 4.5
2018-May-11 00:01N 38°60' W 090°34'2 4.3
2018-May-10 23:29N 39°02' W 090°35'7 4.0
2018-May-10 21:43N 39°09' W 090°37'1 4.3
2018-May-10 21:24N 39°10' W 090°37'  
2018-May-06 10:30N 39°16' W 090°37'2 3.6
2018-May-06 10:00N 39°14' W 090°36'2 3.7
2018-May-06 09:30N 39°12' W 090°36'2 3.4
2018-May-06 09:00N 39°11' W 090°36'2 3.9
2018-May-06 08:30N 39°09' W 090°37'2 4.0
2018-May-06 08:00N 39°07' W 090°36'2 4.1
2018-May-06 07:30N 39°05' W 090°35'2 3.4
2018-May-06 07:00N 39°03' W 090°35'2 3.8
2018-May-06 06:30N 39°01' W 090°34'2 3.9
2018-May-06 06:00N 38°59' W 090°34'2 4.2
2018-May-06 05:30N 38°58' W 090°33'2 3.9
2018-May-06 05:00N 38°58' W 090°30'2 4.2
2018-May-06 04:30N 38°58' W 090°27'2 4.3
2018-May-06 04:00N 38°58' W 090°25'2 4.2
2018-May-06 03:30N 38°57' W 090°22'2 4.5
2018-May-06 03:00N 38°56' W 090°20'2 4.2
2018-May-06 02:30N 38°55' W 090°17'2 4.5
2018-May-06 02:00N 38°55' W 090°14'2 4.3
2018-May-06 01:30N 38°54' W 090°12'2 3.3
2018-May-06 01:00N 38°53' W 090°10'1 2.7
2018-May-06 00:30N 38°52' W 090°09'1 1.6
2018-May-06 00:00N 38°52' W 090°08'1 1.7
2018-May-05 23:30N 38°51' W 090°07'1 2.5
2018-May-05 23:00N 38°50' W 090°07'2 4.6
2018-May-05 22:30N 38°48' W 090°07'2 3.9
2018-May-05 21:58N 38°46' W 090°08'1 2.9
2018-May-05 21:30N 38°45' W 090°09'1 2.6
2018-May-05 21:00N 38°44' W 090°10'2 3.1
2018-May-05 20:29N 38°42' W 090°11'0 0.3
2018-May-05 20:00N 38°42' W 090°11'1 1.9
2018-May-05 19:30N 38°41' W 090°11'2 3.5
2018-May-05 19:00N 38°39' W 090°11'2 3.9
2018-May-05 18:30N 38°37' W 090°11'1 2.6
2018-May-05 18:00N 38°36' W 090°11'5 1.3
2018-May-05 14:12N 38°32' W 090°15'0 0.0
2018-May-05 13:58N 38°32' W 090°15'0 0.0
2018-May-05 13:30N 38°32' W 090°15'0 0.0
2018-May-05 12:57N 38°32' W 090°15'0 0.1
2018-May-05 12:30N 38°32' W 090°15'1 1.1
2018-May-05 12:00N 38°32' W 090°15'0 0.0
2018-May-05 11:30N 38°32' W 090°15'0 0.2
2018-May-05 10:56N 38°32' W 090°15'4 6.7
2018-May-05 10:23N 38°35' W 090°13'3 7.8
2018-May-05 10:00N 38°38' W 090°11'4 7.6
2018-May-05 09:30N 38°41' W 090°11'1 1.7
2018-May-05 09:00N 38°42' W 090°11'1 1.1
2018-May-05 08:30N 38°43' W 090°11'1 2.4
2018-May-05 08:00N 38°44' W 090°10'1 1.7
2018-May-05 07:30N 38°44' W 090°09'1 2.1
2018-May-05 06:58N 38°45' W 090°09'1 2.9
2018-May-05 06:30N 38°47' W 090°08'2 4.2
2018-May-05 06:00N 38°49' W 090°07'3 6.1
2018-May-05 05:30N 38°51' W 090°08'1 2.5
2018-May-05 05:00N 38°52' W 090°09'0 0.5
2018-May-05 04:30N 38°52' W 090°09'0 0.4
2018-May-05 04:00N 38°52' W 090°10'2 4.5
2018-May-05 03:30N 38°54' W 090°12'2 3.2
2018-May-05 03:00N 38°55' W 090°13'0 0.0
2018-May-05 02:30N 38°55' W 090°13'0 0.2
2018-May-05 01:58N 38°55' W 090°14'2 5.2
2018-May-05 01:30N 38°55' W 090°17'3 5.6
2018-May-05 01:00N 38°56' W 090°20'3 5.8
2018-May-05 00:30N 38°58' W 090°23'3 5.9
2018-May-05 00:00N 38°58' W 090°27'2 4.1
2018-May-04 23:30N 38°58' W 090°30'2 3.4
2018-May-04 22:59N 38°57' W 090°32'2 4.1
2018-May-04 22:23N 38°59' W 090°34'2 4.1
2018-May-04 22:00N 39°01' W 090°35'2 3.8
2018-May-04 21:28N 39°03' W 090°35'2 3.3
2018-May-04 21:00N 39°04' W 090°35'2 4.2
2018-May-04 20:30N 39°06' W 090°36'2 4.0
2018-May-04 19:54N 39°08' W 090°37'2 3.4
2018-May-04 19:27N 39°10' W 090°37'2 3.7
2018-May-04 18:59N 39°11' W 090°36'  
Track history (hours):
 
Tides and Currents Weather Stations Pressure Air Temp Water Temp Dewpoint Dewpoint Depression Visibility Wind Speed Wind Dir Waves Ship Positions

Brian A Napack

Owner: Ingram Barge Company LLC, Nashville, TN. More information available from US FCC via Universal Licensing System and Coast Guard Vessel Documentation Center.

Last reported at 2018-May-11 19:43 UTC. Time now 2018-Jun-23 19:47 UTC.
Position N 39°12' W 090°36'.
Warning: this ship's position is 43 days out of date.

Length 46 m.

Type: Towing. MMSI: 366963060.

Date/timePositionNaut miles runAvg speedWind from/ knotsBaromVisibWave heightAir tempDewpointWater temp
2018-May-11 19:43N 39°12' W 090°36'0 0.1
2018-May-11 18:12N 39°12' W 090°35'0 1.3
2018-May-11 17:49N 39°12' W 090°36'1 3.6
2018-May-11 17:29N 39°11' W 090°36'2 4.1
2018-May-11 17:00N 39°09' W 090°37'2 4.1
2018-May-11 16:30N 39°07' W 090°36'2 4.3
2018-May-11 16:00N 39°05' W 090°35'2 3.1
2018-May-11 15:29N 39°03' W 090°35'2 3.5
2018-May-11 15:00N 39°02' W 090°34'2 3.8
2018-May-11 14:30N 38°60' W 090°34'2 4.1
2018-May-11 14:01N 38°58' W 090°33'2 3.6
2018-May-11 13:30N 38°57' W 090°31'2 4.3
2018-May-11 13:01N 38°58' W 090°28'2 3.9
2018-May-11 12:30N 38°58' W 090°25'2 3.7
2018-May-11 12:01N 38°58' W 090°23'1 2.1
2018-May-11 11:30N 38°57' W 090°22'2 4.5
2018-May-11 11:01N 38°56' W 090°20'2 4.7
2018-May-11 10:30N 38°55' W 090°17'2 4.4
2018-May-11 10:00N 38°55' W 090°14'0 0.9
2018-May-11 09:30N 38°55' W 090°13'0 0.0
2018-May-11 09:00N 38°55' W 090°13'0 0.0
2018-May-11 08:29N 38°55' W 090°13'0 0.0
2018-May-11 08:00N 38°55' W 090°13'0 0.0
2018-May-11 07:30N 38°55' W 090°13'0 0.2
2018-May-11 07:00N 38°55' W 090°13'0 0.2
2018-May-11 06:31N 38°55' W 090°13'0 0.1
2018-May-11 06:00N 38°55' W 090°13'0 0.1
2018-May-11 05:30N 38°55' W 090°14'0 0.2
2018-May-11 05:00N 38°55' W 090°13'0 0.0
2018-May-11 04:31N 38°55' W 090°13'0 0.0
2018-May-11 04:00N 38°55' W 090°13'0 0.0
2018-May-11 03:30N 38°55' W 090°13'2 3.8
2018-May-11 03:00N 38°55' W 090°16'3 6.4
2018-May-11 02:30N 38°56' W 090°20'3 6.6
2018-May-11 02:00N 38°58' W 090°23'3 6.7
2018-May-11 01:30N 38°58' W 090°28'2 4.5
2018-May-11 01:00N 38°57' W 090°30'2 3.7
2018-May-11 00:30N 38°58' W 090°33'2 4.5
2018-May-11 00:01N 38°60' W 090°34'2 4.3
2018-May-10 23:29N 39°02' W 090°35'7 4.0
2018-May-10 21:43N 39°09' W 090°37'1 4.3
2018-May-10 21:24N 39°10' W 090°37'  
2018-May-06 10:30N 39°16' W 090°37'2 3.6
2018-May-06 10:00N 39°14' W 090°36'2 3.7
2018-May-06 09:30N 39°12' W 090°36'2 3.4
2018-May-06 09:00N 39°11' W 090°36'2 3.9
2018-May-06 08:30N 39°09' W 090°37'2 4.0
2018-May-06 08:00N 39°07' W 090°36'2 4.1
2018-May-06 07:30N 39°05' W 090°35'2 3.4
2018-May-06 07:00N 39°03' W 090°35'2 3.8
2018-May-06 06:30N 39°01' W 090°34'2 3.9
2018-May-06 06:00N 38°59' W 090°34'2 4.2
2018-May-06 05:30N 38°58' W 090°33'2 3.9
2018-May-06 05:00N 38°58' W 090°30'2 4.2
2018-May-06 04:30N 38°58' W 090°27'2 4.3
2018-May-06 04:00N 38°58' W 090°25'2 4.2
2018-May-06 03:30N 38°57' W 090°22'2 4.5
2018-May-06 03:00N 38°56' W 090°20'2 4.2
2018-May-06 02:30N 38°55' W 090°17'2 4.5
2018-May-06 02:00N 38°55' W 090°14'2 4.3
2018-May-06 01:30N 38°54' W 090°12'2 3.3
2018-May-06 01:00N 38°53' W 090°10'1 2.7
2018-May-06 00:30N 38°52' W 090°09'1 1.6
2018-May-06 00:00N 38°52' W 090°08'1 1.7
2018-May-05 23:30N 38°51' W 090°07'1 2.5
2018-May-05 23:00N 38°50' W 090°07'2 4.6
2018-May-05 22:30N 38°48' W 090°07'2 3.9
2018-May-05 21:58N 38°46' W 090°08'1 2.9
2018-May-05 21:30N 38°45' W 090°09'1 2.6
2018-May-05 21:00N 38°44' W 090°10'2 3.1
2018-May-05 20:29N 38°42' W 090°11'0 0.3
2018-May-05 20:00N 38°42' W 090°11'1 1.9
2018-May-05 19:30N 38°41' W 090°11'2 3.5
2018-May-05 19:00N 38°39' W 090°11'2 3.9
2018-May-05 18:30N 38°37' W 090°11'1 2.6
2018-May-05 18:00N 38°36' W 090°11'5 1.3
2018-May-05 14:12N 38°32' W 090°15'0 0.0
2018-May-05 13:58N 38°32' W 090°15'0 0.0
2018-May-05 13:30N 38°32' W 090°15'0 0.0
2018-May-05 12:57N 38°32' W 090°15'0 0.1
2018-May-05 12:30N 38°32' W 090°15'1 1.1
2018-May-05 12:00N 38°32' W 090°15'0 0.0
2018-May-05 11:30N 38°32' W 090°15'0 0.2
2018-May-05 10:56N 38°32' W 090°15'4 6.7
2018-May-05 10:23N 38°35' W 090°13'3 7.8
2018-May-05 10:00N 38°38' W 090°11'4 7.6
2018-May-05 09:30N 38°41' W 090°11'1 1.7
2018-May-05 09:00N 38°42' W 090°11'1 1.1
2018-May-05 08:30N 38°43' W 090°11'1 2.4
2018-May-05 08:00N 38°44' W 090°10'1 1.7
2018-May-05 07:30N 38°44' W 090°09'1 2.1
2018-May-05 06:58N 38°45' W 090°09'1 2.9
2018-May-05 06:30N 38°47' W 090°08'2 4.2
2018-May-05 06:00N 38°49' W 090°07'3 6.1
2018-May-05 05:30N 38°51' W 090°08'1 2.5
2018-May-05 05:00N 38°52' W 090°09'0 0.5
2018-May-05 04:30N 38°52' W 090°09'0 0.4
2018-May-05 04:00N 38°52' W 090°10'2 4.5
2018-May-05 03:30N 38°54' W 090°12'2 3.2
2018-May-05 03:00N 38°55' W 090°13'0 0.0
2018-May-05 02:30N 38°55' W 090°13'0 0.2
2018-May-05 01:58N 38°55' W 090°14'2 5.2
2018-May-05 01:30N 38°55' W 090°17'3 5.6
2018-May-05 01:00N 38°56' W 090°20'3 5.8
2018-May-05 00:30N 38°58' W 090°23'3 5.9
2018-May-05 00:00N 38°58' W 090°27'2 4.1
2018-May-04 23:30N 38°58' W 090°30'2 3.4
2018-May-04 22:59N 38°57' W 090°32'2 4.1
2018-May-04 22:23N 38°59' W 090°34'2 4.1
2018-May-04 22:00N 39°01' W 090°35'2 3.8
2018-May-04 21:28N 39°03' W 090°35'2 3.3
2018-May-04 21:00N 39°04' W 090°35'2 4.2
2018-May-04 20:30N 39°06' W 090°36'2 4.0
2018-May-04 19:54N 39°08' W 090°37'2 3.4
2018-May-04 19:27N 39°10' W 090°37'2 3.7
2018-May-04 18:59N 39°11' W 090°36'  

Dump ship's entire track history